createdAt,value
2022-08-26T00:02:04.794Z,19.90
2022-08-26T00:04:34.487Z,20.00
2022-08-26T00:07:08.525Z,20.00
2022-08-26T00:09:40.126Z,19.90
2022-08-26T00:12:12.647Z,19.90
2022-08-26T00:14:53.268Z,19.80
2022-08-26T00:17:26.731Z,19.80
2022-08-26T00:19:57.607Z,19.80
2022-08-26T00:22:29.712Z,19.80
2022-08-26T00:24:58.299Z,19.80
2022-08-26T00:27:33.938Z,19.80
2022-08-26T00:30:03.248Z,19.80
2022-08-26T00:32:33.900Z,19.80
2022-08-26T00:35:15.258Z,19.90
2022-08-26T00:37:47.476Z,19.80
2022-08-26T00:40:26.597Z,19.80
2022-08-26T00:42:56.483Z,19.80
2022-08-26T00:45:26.790Z,19.70
2022-08-26T00:48:03.800Z,19.70
2022-08-26T00:50:40.538Z,19.70
2022-08-26T00:53:26.053Z,19.60
2022-08-26T00:56:00.595Z,19.60
2022-08-26T00:58:36.333Z,19.50
2022-08-26T01:01:06.793Z,19.50
2022-08-26T01:03:38.407Z,19.40
2022-08-26T01:06:12.392Z,19.30
2022-08-26T01:08:43.366Z,19.30
2022-08-26T01:11:12.662Z,19.30
2022-08-26T01:13:44.237Z,19.30
2022-08-26T01:16:17.026Z,19.20
2022-08-26T01:18:47.722Z,19.20
2022-08-26T01:21:25.552Z,19.20
2022-08-26T01:24:01.415Z,19.20
2022-08-26T01:26:34.754Z,19.20
2022-08-26T01:29:09.282Z,19.20
2022-08-26T01:31:46.267Z,19.20
2022-08-26T01:34:23.854Z,19.20
2022-08-26T01:36:58.696Z,19.00
2022-08-26T01:39:32.477Z,19.10
2022-08-26T01:42:03.414Z,19.00
2022-08-26T01:44:37.464Z,18.90
2022-08-26T01:47:12.828Z,18.80
2022-08-26T01:49:44.571Z,18.80
2022-08-26T01:52:19.885Z,18.80
2022-08-26T01:54:55.545Z,18.80
2022-08-26T01:57:26.378Z,18.80
2022-08-26T01:59:58.589Z,18.70
2022-08-26T02:02:28.349Z,18.70
2022-08-26T02:05:03.157Z,18.60
2022-08-26T02:07:39.813Z,18.60
2022-08-26T02:10:14.102Z,18.60
2022-08-26T02:15:27.583Z,18.50
2022-08-26T02:17:56.951Z,18.40
2022-08-26T02:20:28.246Z,18.50
2022-08-26T02:22:57.799Z,18.40
2022-08-26T02:25:36.896Z,18.40
2022-08-26T02:28:07.416Z,18.40
2022-08-26T02:30:37.913Z,18.40
2022-08-26T02:33:09.815Z,18.40
2022-08-26T02:35:57.209Z,18.30
2022-08-26T02:38:26.856Z,18.30
2022-08-26T02:40:58.865Z,18.30
2022-08-26T02:43:31.294Z,18.30
2022-08-26T02:46:02.581Z,18.30
2022-08-26T02:48:33.751Z,18.30
2022-08-26T02:51:03.679Z,18.30
2022-08-26T02:53:42.840Z,18.20
2022-08-26T02:56:13.962Z,18.20
2022-08-26T02:58:43.301Z,18.30
2022-08-26T03:01:22.250Z,18.30
2022-08-26T03:03:51.924Z,18.30
2022-08-26T03:06:20.447Z,18.30
2022-08-26T03:08:50.368Z,18.30
2022-08-26T03:11:23.651Z,18.20
2022-08-26T03:13:55.610Z,18.20
2022-08-26T03:16:27.208Z,18.20
2022-08-26T03:19:02.413Z,18.10
2022-08-26T03:21:36.472Z,18.00
2022-08-26T03:24:06.850Z,18.00
2022-08-26T03:26:52.371Z,18.00
2022-08-26T03:29:41.639Z,17.90
2022-08-26T03:32:12.919Z,17.80
2022-08-26T03:34:43.513Z,17.80
2022-08-26T03:37:14.833Z,17.80
2022-08-26T03:39:44.406Z,17.80
2022-08-26T03:42:18.385Z,17.80
2022-08-26T03:44:52.450Z,17.80
2022-08-26T03:47:20.652Z,17.80
2022-08-26T03:49:50.527Z,17.80
2022-08-26T03:52:25.875Z,17.80
2022-08-26T03:54:56.065Z,17.80
2022-08-26T03:57:30.747Z,17.80
2022-08-26T03:59:59.046Z,17.70
2022-08-26T04:02:35.271Z,17.60
2022-08-26T04:05:04.185Z,17.60
2022-08-26T04:07:35.086Z,17.70
2022-08-26T04:10:05.581Z,17.60
2022-08-26T04:12:37.370Z,17.60
2022-08-26T04:15:09.110Z,17.60
2022-08-26T04:17:38.273Z,17.50
2022-08-26T04:20:10.456Z,17.50
2022-08-26T04:22:43.194Z,17.40
2022-08-26T04:25:12.623Z,17.40
2022-08-26T04:27:57.083Z,17.40
2022-08-26T04:30:27.747Z,17.40
2022-08-26T04:32:57.196Z,17.40
2022-08-26T04:35:28.315Z,17.40
2022-08-26T04:37:59.467Z,17.40
2022-08-26T04:40:30.161Z,17.40
2022-08-26T04:43:02.041Z,17.30
2022-08-26T04:45:32.622Z,17.30
2022-08-26T04:48:04.282Z,17.30
2022-08-26T04:50:32.539Z,17.30
2022-08-26T04:53:01.095Z,17.30
2022-08-26T04:55:39.627Z,17.40
2022-08-26T04:58:10.983Z,17.40
2022-08-26T05:00:40.379Z,17.50
2022-08-26T05:03:11.108Z,17.60
2022-08-26T05:05:46.951Z,17.60
2022-08-26T05:08:17.055Z,17.70
2022-08-26T05:10:53.098Z,17.70
2022-08-26T05:13:26.291Z,17.80
2022-08-26T05:15:58.160Z,17.80
2022-08-26T05:18:33.569Z,17.80
2022-08-26T05:21:03.875Z,17.80
2022-08-26T05:23:35.676Z,17.90
2022-08-26T05:26:11.329Z,18.00
2022-08-26T05:28:42.179Z,18.10
2022-08-26T05:31:17.391Z,18.20
2022-08-26T05:33:47.709Z,18.30
2022-08-26T05:36:18.556Z,18.40
2022-08-26T05:38:47.263Z,18.40
2022-08-26T05:41:18.120Z,18.50
2022-08-26T05:43:49.538Z,18.50
2022-08-26T05:46:25.392Z,18.70
2022-08-26T05:48:58.166Z,18.80
2022-08-26T05:51:27.812Z,18.80
2022-08-26T05:54:00.277Z,18.90
2022-08-26T05:56:29.985Z,19.00
2022-08-26T05:59:03.000Z,19.20
2022-08-26T06:01:35.782Z,19.30
2022-08-26T06:04:07.149Z,19.40
2022-08-26T06:06:42.691Z,19.50
2022-08-26T06:09:14.469Z,19.60
2022-08-26T06:11:48.319Z,19.80
2022-08-26T06:14:21.686Z,19.80
2022-08-26T06:16:49.934Z,19.90
2022-08-26T06:19:20.099Z,20.00
2022-08-26T06:21:54.753Z,20.20
2022-08-26T06:24:45.631Z,20.40
2022-08-26T06:27:22.526Z,20.50
2022-08-26T06:29:54.828Z,20.70
2022-08-26T06:32:25.216Z,20.80
2022-08-26T06:34:56.944Z,21.00
2022-08-26T06:37:32.195Z,21.10
2022-08-26T06:40:07.381Z,21.30
2022-08-26T06:42:38.039Z,21.50
2022-08-26T06:45:09.783Z,21.60
2022-08-26T06:47:39.653Z,21.80
2022-08-26T06:50:10.888Z,21.90
2022-08-26T06:52:41.617Z,22.10
2022-08-26T06:55:11.061Z,22.20
2022-08-26T06:57:41.219Z,22.40
2022-08-26T07:00:14.045Z,22.50
2022-08-26T07:02:46.108Z,22.80
2022-08-26T07:05:23.504Z,22.80
2022-08-26T07:07:52.636Z,23.00
2022-08-26T07:10:22.707Z,23.10
2022-08-26T07:12:57.117Z,23.30
2022-08-26T07:15:46.782Z,23.40
2022-08-26T07:18:39.022Z,23.60
2022-08-26T07:21:15.902Z,23.70
2022-08-26T07:23:49.614Z,23.80
2022-08-26T07:26:28.802Z,23.90
2022-08-26T07:29:01.049Z,24.10
2022-08-26T07:31:52.659Z,24.10
2022-08-26T07:34:28.695Z,24.20
2022-08-26T07:37:00.280Z,24.40
2022-08-26T07:39:31.875Z,24.50
2022-08-26T07:42:07.275Z,24.80
2022-08-26T07:44:36.797Z,24.80
2022-08-26T07:47:24.061Z,24.80
2022-08-26T07:49:55.149Z,24.90
2022-08-26T07:52:26.652Z,25.20
2022-08-26T07:54:56.244Z,25.30
2022-08-26T07:57:25.010Z,25.50
2022-08-26T07:59:55.254Z,25.70
2022-08-26T08:02:26.565Z,25.80
2022-08-26T08:04:55.101Z,25.80
2022-08-26T08:07:35.031Z,25.80
2022-08-26T08:10:13.562Z,25.90
2022-08-26T08:12:42.248Z,25.90
2022-08-26T08:15:12.288Z,26.10
2022-08-26T08:17:43.812Z,26.30
2022-08-26T08:20:14.483Z,26.30
2022-08-26T08:22:43.664Z,26.20
2022-08-26T08:25:12.529Z,26.50
2022-08-26T08:27:42.835Z,26.80
2022-08-26T08:30:13.667Z,27.10
2022-08-26T08:32:44.429Z,27.10
2022-08-26T08:35:15.830Z,27.10
2022-08-26T08:37:44.814Z,27.10
2022-08-26T08:40:18.284Z,27.30
2022-08-26T08:42:53.764Z,27.40
2022-08-26T08:45:36.588Z,27.40
2022-08-26T08:48:12.878Z,27.40
2022-08-26T08:50:45.853Z,27.40
2022-08-26T08:53:18.016Z,27.50
2022-08-26T08:55:54.696Z,27.60
2022-08-26T08:58:42.717Z,27.80
2022-08-26T09:01:22.115Z,27.40
2022-08-26T09:04:12.249Z,27.60
2022-08-26T09:06:46.805Z,27.70
2022-08-26T09:09:22.404Z,27.80
2022-08-26T09:11:50.752Z,27.70
2022-08-26T09:14:19.206Z,27.60
2022-08-26T09:16:51.943Z,27.70
2022-08-26T09:19:30.135Z,27.90
2022-08-26T09:21:59.202Z,28.00
2022-08-26T09:24:28.617Z,28.10
2022-08-26T09:26:59.333Z,27.60
2022-08-26T09:29:29.830Z,27.40
2022-08-26T09:32:16.287Z,27.30
2022-08-26T09:34:55.065Z,27.40
2022-08-26T09:37:36.672Z,27.40
2022-08-26T09:40:19.129Z,27.60
2022-08-26T09:42:48.697Z,27.70
2022-08-26T09:45:17.086Z,27.40
2022-08-26T09:47:56.059Z,27.40
2022-08-26T09:50:29.943Z,27.30
2022-08-26T09:53:21.113Z,27.10
2022-08-26T09:56:11.781Z,27.00
2022-08-26T09:58:42.573Z,27.20
2022-08-26T10:01:18.212Z,27.30
2022-08-26T10:03:48.964Z,27.60
2022-08-26T10:06:26.803Z,27.30
2022-08-26T10:08:59.032Z,27.40
2022-08-26T10:11:35.619Z,27.60
2022-08-26T10:14:10.197Z,27.40
2022-08-26T10:16:46.729Z,27.30
2022-08-26T10:19:19.702Z,27.30
2022-08-26T10:21:54.059Z,27.30
2022-08-26T10:24:29.682Z,27.30
2022-08-26T10:27:03.581Z,27.50
2022-08-26T10:29:43.725Z,27.50
2022-08-26T10:32:17.922Z,27.70
2022-08-26T10:34:46.201Z,27.80
2022-08-26T10:37:21.444Z,27.80
2022-08-26T10:39:59.025Z,27.80
2022-08-26T10:42:33.174Z,27.90
2022-08-26T10:45:07.704Z,27.80
2022-08-26T10:47:48.363Z,27.80
2022-08-26T10:50:17.985Z,27.70
2022-08-26T10:52:58.775Z,27.90
2022-08-26T10:55:36.309Z,27.90
2022-08-26T10:58:26.433Z,28.20
2022-08-26T11:01:22.752Z,28.30
2022-08-26T11:03:58.797Z,28.20
2022-08-26T11:06:29.949Z,28.10
2022-08-26T11:09:01.660Z,28.10
2022-08-26T11:11:51.036Z,27.90
2022-08-26T11:14:40.611Z,28.00
2022-08-26T11:25:00.744Z,28.20
2022-08-26T11:28:06.384Z,28.30
2022-08-26T11:30:42.782Z,28.60
2022-08-26T11:33:11.865Z,28.80
2022-08-26T11:35:52.831Z,28.40
2022-08-26T11:38:29.352Z,28.40
2022-08-26T11:41:18.545Z,28.50
2022-08-26T11:43:50.384Z,28.50
2022-08-26T11:46:26.881Z,28.70
2022-08-26T11:49:02.561Z,29.00
2022-08-26T11:51:34.156Z,28.70
2022-08-26T11:54:13.482Z,28.50
2022-08-26T11:56:47.290Z,29.20
2022-08-26T11:59:20.869Z,29.20
2022-08-26T12:01:53.961Z,29.10
2022-08-26T12:04:29.407Z,28.80
2022-08-26T12:07:00.695Z,28.70
2022-08-26T12:09:31.345Z,29.00
2022-08-26T12:12:16.084Z,29.50
2022-08-26T12:14:45.027Z,29.60
2022-08-26T12:17:17.724Z,29.30
2022-08-26T12:19:47.655Z,29.40
2022-08-26T12:22:21.024Z,29.30
2022-08-26T12:24:53.318Z,29.70
2022-08-26T12:27:26.214Z,30.10
2022-08-26T12:30:08.564Z,30.30
2022-08-26T12:32:39.146Z,30.00
2022-08-26T12:35:25.712Z,29.90
2022-08-26T12:37:56.946Z,29.50
2022-08-26T12:40:39.359Z,29.20
2022-08-26T12:43:10.779Z,29.30
2022-08-26T12:45:43.139Z,29.50
2022-08-26T12:48:14.010Z,29.50
2022-08-26T12:50:49.280Z,29.60
2022-08-26T12:53:23.825Z,29.70
2022-08-26T12:55:54.538Z,30.20
2022-08-26T12:58:30.297Z,29.70
2022-08-26T13:01:09.955Z,29.80
2022-08-26T13:03:43.702Z,30.00
2022-08-26T13:06:18.464Z,30.80
2022-08-26T13:08:47.496Z,30.50
2022-08-26T13:11:20.520Z,30.70
2022-08-26T13:13:52.606Z,30.70
2022-08-26T13:16:23.257Z,30.70
2022-08-26T13:18:54.552Z,30.80
2022-08-26T13:21:25.237Z,31.40
2022-08-26T13:23:54.189Z,31.90
2022-08-26T13:26:22.970Z,31.80
2022-08-26T13:29:02.237Z,32.00
2022-08-26T13:31:32.615Z,32.30
2022-08-26T13:34:01.939Z,31.90
2022-08-26T13:36:30.372Z,31.70
2022-08-26T13:38:59.047Z,32.00
2022-08-26T13:41:29.272Z,32.20
2022-08-26T13:43:59.734Z,32.30
2022-08-26T13:46:28.373Z,32.40
2022-08-26T13:48:57.017Z,32.40
2022-08-26T13:51:26.641Z,32.90
2022-08-26T13:53:55.081Z,33.30
2022-08-26T13:56:23.518Z,33.30
2022-08-26T13:58:51.993Z,33.70
2022-08-26T14:01:21.639Z,33.90
2022-08-26T14:03:49.887Z,34.30
2022-08-26T14:06:18.239Z,34.50
2022-08-26T14:08:47.005Z,34.80
2022-08-26T14:11:15.467Z,34.70
2022-08-26T14:13:43.738Z,34.00
2022-08-26T14:16:17.559Z,33.00
2022-08-26T14:18:50.609Z,33.70
2022-08-26T14:21:19.558Z,33.60
2022-08-26T14:23:47.984Z,34.00
2022-08-26T14:26:28.273Z,34.30
2022-08-26T14:28:57.967Z,33.60
2022-08-26T14:31:27.045Z,32.40
2022-08-26T14:33:58.726Z,32.10
2022-08-26T14:36:31.344Z,32.30
2022-08-26T14:39:02.534Z,32.70
2022-08-26T14:41:32.290Z,33.10
2022-08-26T14:44:03.890Z,33.00
2022-08-26T14:46:37.727Z,32.70
2022-08-26T14:49:10.662Z,32.10
2022-08-26T14:51:39.231Z,32.20
2022-08-26T14:54:12.727Z,32.30
2022-08-26T14:56:45.280Z,32.40
2022-08-26T14:59:14.201Z,32.50
2022-08-26T15:01:42.464Z,32.30
2022-08-26T15:04:12.258Z,32.00
2022-08-26T15:06:40.745Z,32.40
2022-08-26T15:09:09.460Z,32.40
2022-08-26T15:11:37.792Z,32.30
2022-08-26T15:14:06.375Z,32.10
2022-08-26T15:16:35.065Z,31.70
2022-08-26T15:19:05.011Z,31.50
2022-08-26T15:21:35.674Z,32.20
2022-08-26T15:24:04.885Z,31.30
2022-08-26T15:26:33.909Z,31.00
2022-08-26T15:29:04.998Z,30.80
2022-08-26T15:31:34.942Z,30.50
2022-08-26T15:34:06.718Z,30.20
2022-08-26T15:36:37.859Z,30.00
2022-08-26T15:39:08.540Z,29.50
2022-08-26T15:41:37.758Z,28.90
2022-08-26T15:44:08.226Z,28.20
2022-08-26T15:46:37.539Z,27.50
2022-08-26T15:49:07.242Z,27.30
2022-08-26T15:51:45.255Z,26.90
2022-08-26T15:54:16.735Z,26.60
2022-08-26T15:56:45.435Z,25.90
2022-08-26T15:59:16.295Z,25.40
2022-08-26T16:01:44.777Z,25.30
2022-08-26T16:04:14.000Z,25.10
2022-08-26T16:06:43.755Z,25.30
2022-08-26T16:09:12.345Z,25.30
2022-08-26T16:11:40.601Z,25.30
2022-08-26T16:14:09.188Z,25.50
2022-08-26T16:16:39.310Z,25.30
2022-08-26T16:19:07.821Z,25.30
2022-08-26T16:21:36.077Z,25.40
2022-08-26T16:24:07.008Z,26.10
2022-08-26T16:26:38.311Z,26.80
2022-08-26T16:29:08.711Z,26.80
2022-08-26T16:31:37.969Z,27.20
2022-08-26T16:34:06.409Z,27.10
2022-08-26T16:36:35.468Z,26.70
2022-08-26T16:39:06.037Z,26.30
2022-08-26T16:41:35.109Z,26.00
2022-08-26T16:44:04.507Z,25.50
2022-08-26T16:46:33.542Z,25.40
2022-08-26T16:49:04.050Z,25.30
2022-08-26T16:51:34.802Z,25.00
2022-08-26T16:54:09.155Z,24.70
2022-08-26T16:56:38.281Z,24.40
2022-08-26T16:59:07.958Z,24.20
2022-08-26T17:01:36.449Z,24.10
2022-08-26T17:04:05.278Z,24.10
2022-08-26T17:06:34.066Z,24.10
2022-08-26T17:09:02.333Z,24.00
2022-08-26T17:11:32.141Z,23.80
2022-08-26T17:14:00.354Z,23.70
2022-08-26T17:16:29.037Z,23.70
2022-08-26T17:18:57.829Z,23.70
2022-08-26T17:21:27.118Z,23.50
2022-08-26T17:23:56.297Z,23.50
2022-08-26T17:26:25.219Z,23.50
2022-08-26T17:28:55.185Z,23.40
2022-08-26T17:31:24.396Z,23.40
2022-08-26T17:33:53.942Z,23.40
2022-08-26T17:36:23.182Z,23.50
2022-08-26T17:38:56.824Z,23.40
2022-08-26T17:41:25.418Z,23.30
2022-08-26T17:43:55.133Z,23.30
2022-08-26T17:46:23.564Z,23.30
2022-08-26T17:48:51.951Z,23.20
2022-08-26T17:51:21.035Z,23.10
2022-08-26T17:53:49.744Z,22.80
2022-08-26T17:56:19.571Z,22.90
2022-08-26T17:58:51.630Z,22.80
2022-08-26T18:01:22.735Z,22.90
2022-08-26T18:03:50.966Z,22.90
2022-08-26T18:06:20.651Z,22.80
2022-08-26T18:08:49.010Z,23.00
2022-08-26T18:11:20.680Z,23.00
2022-08-26T18:13:49.112Z,22.90
2022-08-26T18:16:19.147Z,22.90
2022-08-26T18:18:53.557Z,22.90
2022-08-26T18:21:24.310Z,23.00
2022-08-26T18:23:53.558Z,22.90
2022-08-26T18:26:24.168Z,22.90
2022-08-26T18:28:52.897Z,22.80
2022-08-26T18:31:21.387Z,22.80
2022-08-26T18:33:51.339Z,22.80
2022-08-26T18:36:20.826Z,22.80
2022-08-26T18:38:50.687Z,22.80
2022-08-26T18:41:21.701Z,22.80
2022-08-26T18:43:51.537Z,22.80
2022-08-26T18:46:22.090Z,22.80
2022-08-26T18:48:51.701Z,22.80
2022-08-26T18:51:22.833Z,22.60
2022-08-26T18:53:51.578Z,22.70
2022-08-26T18:56:20.418Z,22.80
2022-08-26T18:58:49.015Z,22.60
2022-08-26T19:01:18.598Z,22.50
2022-08-26T19:03:47.550Z,22.40
2022-08-26T19:06:18.791Z,22.20
2022-08-26T19:08:49.880Z,22.00
2022-08-26T19:11:32.063Z,22.00
2022-08-26T19:14:01.453Z,21.80
2022-08-26T19:16:30.535Z,21.80
2022-08-26T19:19:01.054Z,21.80
2022-08-26T19:21:33.125Z,21.80
2022-08-26T19:24:03.297Z,21.30
2022-08-26T19:26:32.635Z,21.30
2022-08-26T19:29:01.141Z,21.30
2022-08-26T19:31:29.504Z,21.30
2022-08-26T19:33:58.176Z,21.20
2022-08-26T19:36:27.998Z,21.10
2022-08-26T19:38:57.659Z,21.10
2022-08-26T19:41:37.024Z,20.90
2022-08-26T19:44:08.329Z,20.90
2022-08-26T19:49:10.646Z,20.50
2022-08-26T19:51:38.850Z,20.40
2022-08-26T19:54:08.503Z,20.40
2022-08-26T19:56:36.732Z,20.40
2022-08-26T19:59:05.006Z,20.40
2022-08-26T20:01:33.217Z,20.30
2022-08-26T20:04:01.844Z,20.40
2022-08-26T20:06:30.100Z,20.30
2022-08-26T20:08:58.366Z,20.30
2022-08-26T20:11:28.032Z,20.30
2022-08-26T20:13:57.181Z,20.30
2022-08-26T20:16:25.487Z,20.20
2022-08-26T20:19:10.866Z,20.10
2022-08-26T20:21:40.334Z,20.10
2022-08-26T20:24:10.951Z,20.00
2022-08-26T20:26:42.105Z,20.00
2022-08-26T20:29:12.173Z,20.00
2022-08-26T20:31:41.055Z,20.00
2022-08-26T20:34:09.321Z,19.90
2022-08-26T20:36:40.107Z,19.80
2022-08-26T20:39:10.519Z,19.70
2022-08-26T20:41:40.507Z,19.80
2022-08-26T20:44:09.523Z,19.80
2022-08-26T20:46:38.458Z,19.80
2022-08-26T20:49:07.964Z,19.80
2022-08-26T20:51:37.434Z,19.80
2022-08-26T20:54:06.312Z,19.70
2022-08-26T20:56:34.563Z,19.70
2022-08-26T20:59:05.786Z,19.70
2022-08-26T21:01:36.017Z,19.70
2022-08-26T21:04:06.706Z,19.70
2022-08-26T21:06:35.763Z,19.70
2022-08-26T21:09:05.861Z,19.60
2022-08-26T21:11:34.566Z,19.60
2022-08-26T21:14:06.902Z,19.50
2022-08-26T21:16:45.480Z,19.60
2022-08-26T21:19:15.931Z,19.60
2022-08-26T21:21:44.541Z,19.50
2022-08-26T21:24:13.387Z,19.50
2022-08-26T21:26:41.918Z,19.50
2022-08-26T21:29:13.504Z,19.50
2022-08-26T21:31:46.190Z,19.50
2022-08-26T21:34:15.442Z,19.50
2022-08-26T21:36:43.767Z,19.50
2022-08-26T21:39:12.491Z,19.40
2022-08-26T21:41:41.853Z,19.50
2022-08-26T21:44:12.264Z,19.50
2022-08-26T21:46:40.555Z,19.40
2022-08-26T21:49:10.434Z,19.40
2022-08-26T21:51:41.439Z,19.40
2022-08-26T21:54:11.362Z,19.40
2022-08-26T21:56:44.333Z,19.50
2022-08-26T21:59:15.075Z,19.40
2022-08-26T22:01:43.349Z,19.50
2022-08-26T22:04:11.962Z,19.50
2022-08-26T22:06:45.204Z,19.60
2022-08-26T22:09:15.443Z,19.60
2022-08-26T22:11:44.524Z,19.60
2022-08-26T22:14:14.824Z,19.60
2022-08-26T22:16:48.121Z,19.60
2022-08-26T22:19:20.003Z,19.70
2022-08-26T22:21:49.475Z,19.70
2022-08-26T22:24:18.310Z,19.70
2022-08-26T22:26:47.130Z,19.70
2022-08-26T22:29:17.272Z,19.70
2022-08-26T22:31:45.764Z,19.70
2022-08-26T22:34:17.331Z,19.80
2022-08-26T22:36:47.319Z,19.80
2022-08-26T22:39:17.451Z,19.80
2022-08-26T22:41:48.181Z,19.80
2022-08-26T22:44:18.974Z,19.70
2022-08-26T22:46:47.871Z,19.60
2022-08-26T22:49:17.529Z,19.70
2022-08-26T22:51:46.368Z,19.80
2022-08-26T22:54:15.476Z,19.80
2022-08-26T22:56:44.495Z,19.80
2022-08-26T22:59:13.565Z,19.80
2022-08-26T23:01:44.431Z,19.80
2022-08-26T23:04:13.159Z,19.80
2022-08-26T23:06:47.847Z,19.70
2022-08-26T23:09:17.973Z,19.70
2022-08-26T23:11:47.478Z,19.70
2022-08-26T23:14:16.910Z,19.70
2022-08-26T23:16:47.481Z,19.70
2022-08-26T23:19:18.229Z,19.70
2022-08-26T23:21:47.066Z,19.70
2022-08-26T23:24:17.357Z,19.70
2022-08-26T23:26:45.957Z,19.80
2022-08-26T23:29:15.893Z,19.70
2022-08-26T23:31:44.574Z,19.80
2022-08-26T23:34:32.672Z,19.70
2022-08-26T23:37:01.329Z,19.80
2022-08-26T23:39:30.394Z,19.80
2022-08-26T23:41:58.606Z,19.80
2022-08-26T23:44:27.000Z,19.80
2022-08-26T23:46:55.822Z,19.80
2022-08-26T23:49:25.938Z,19.80
2022-08-26T23:52:12.071Z,19.80
2022-08-26T23:54:41.050Z,19.90
2022-08-26T23:57:10.477Z,19.80
2022-08-26T23:59:39.684Z,19.80
